createdAt,value
2022-12-03T00:01:20.951Z,100825.84
2022-12-03T00:03:49.017Z,100822.88
2022-12-03T00:06:17.522Z,100796.00
2022-12-03T00:08:45.569Z,100819.75
2022-12-03T00:11:13.361Z,100818.91
2022-12-03T00:13:41.102Z,100811.03
2022-12-03T00:16:10.460Z,100812.31
2022-12-03T00:18:38.592Z,100811.88
2022-12-03T00:21:06.719Z,100812.25
2022-12-03T00:23:40.144Z,100810.88
2022-12-03T00:26:09.723Z,100818.59
2022-12-03T00:28:37.617Z,100802.00
2022-12-03T00:31:05.678Z,100804.84
2022-12-03T00:33:34.984Z,100804.00
2022-12-03T00:36:02.844Z,100796.66
2022-12-03T00:38:30.823Z,100807.09
2022-12-03T00:40:58.664Z,100791.28
2022-12-03T00:43:26.402Z,100793.44
2022-12-03T00:45:54.298Z,100798.56
2022-12-03T00:48:22.099Z,100802.94
2022-12-03T00:50:51.414Z,100793.44
2022-12-03T00:53:19.396Z,100803.97
2022-12-03T00:55:47.443Z,100801.03
2022-12-03T00:58:15.241Z,100792.22
2022-12-03T01:00:43.015Z,100797.31
2022-12-03T01:03:10.837Z,100795.81
2022-12-03T01:05:38.742Z,100793.97
2022-12-03T01:08:08.033Z,100801.31
2022-12-03T01:10:35.894Z,100781.56
2022-12-03T01:13:03.659Z,100791.03
2022-12-03T01:15:31.574Z,100778.44
2022-12-03T01:17:59.427Z,100795.97
2022-12-03T01:20:27.834Z,100803.91
2022-12-03T01:22:55.718Z,100804.69
2022-12-03T01:25:25.094Z,100807.44
2022-12-03T01:27:53.130Z,100812.78
2022-12-03T01:30:21.180Z,100797.78
2022-12-03T01:32:48.055Z,100805.44
2022-12-03T01:35:15.913Z,100808.78
2022-12-03T01:37:43.782Z,100806.81
2022-12-03T01:40:15.343Z,100811.41
2022-12-03T01:42:45.041Z,100811.81
2022-12-03T01:45:22.317Z,100805.34
2022-12-03T01:47:50.415Z,100810.41
2022-12-03T01:50:22.744Z,100806.81
2022-12-03T01:52:50.767Z,100791.97
2022-12-03T01:55:27.789Z,100796.72
2022-12-03T01:58:00.259Z,100805.75
2022-12-03T02:00:29.252Z,100808.56
2022-12-03T02:02:59.165Z,100809.56
2022-12-03T02:05:29.301Z,100804.97
2022-12-03T02:07:58.313Z,100804.75
2022-12-03T02:10:29.028Z,100805.97
2022-12-03T02:13:02.242Z,100804.75
2022-12-03T02:15:30.288Z,100802.59
2022-12-03T02:17:58.704Z,100809.50
2022-12-03T02:20:26.700Z,100805.66
2022-12-03T02:23:04.231Z,100810.19
2022-12-03T02:25:35.637Z,100810.94
2022-12-03T02:28:05.883Z,100814.00
2022-12-03T02:30:34.089Z,100802.72
2022-12-03T02:33:03.149Z,100807.03
2022-12-03T02:35:34.132Z,100807.28
2022-12-03T02:38:10.465Z,100809.84
2022-12-03T02:40:40.405Z,100799.44
2022-12-03T02:43:07.613Z,100805.25
2022-12-03T02:45:37.734Z,100798.63
2022-12-03T02:48:10.192Z,100796.22
2022-12-03T02:50:42.752Z,100785.94
2022-12-03T02:53:14.160Z,100799.75
2022-12-03T02:55:43.850Z,100798.84
2022-12-03T02:58:12.745Z,100802.88
2022-12-03T03:00:41.379Z,100793.31
2022-12-03T03:03:10.005Z,100795.44
2022-12-03T03:05:41.491Z,100798.00
2022-12-03T03:08:11.291Z,100772.66
2022-12-03T03:10:41.157Z,100795.59
2022-12-03T03:13:12.430Z,100792.56
2022-12-03T03:15:41.186Z,100793.94
2022-12-03T03:18:10.459Z,100796.28
2022-12-03T03:20:39.350Z,100793.56
2022-12-03T03:23:14.173Z,100793.16
2022-12-03T03:25:44.958Z,100792.25
2022-12-03T03:28:15.182Z,100799.13
2022-12-03T03:30:44.961Z,100799.50
2022-12-03T03:33:14.296Z,100795.44
2022-12-03T03:35:43.078Z,100796.44
2022-12-03T03:38:11.236Z,100796.44
2022-12-03T03:40:39.676Z,100797.00
2022-12-03T03:43:08.204Z,100803.63
2022-12-03T03:45:37.376Z,100802.97
2022-12-03T03:48:05.348Z,100795.69
2022-12-03T03:50:33.854Z,100791.69
2022-12-03T03:53:03.578Z,100797.34
2022-12-03T03:55:32.380Z,100790.66
2022-12-03T03:58:00.601Z,100790.84
2022-12-03T04:00:28.646Z,100788.66
2022-12-03T04:02:57.774Z,100780.22
2022-12-03T04:05:26.088Z,100782.38
2022-12-03T04:07:53.907Z,100782.47
2022-12-03T04:10:39.507Z,100785.91
2022-12-03T04:13:07.543Z,100778.16
2022-12-03T04:15:35.538Z,100760.84
2022-12-03T04:18:22.534Z,100778.09
2022-12-03T04:20:50.322Z,100770.28
2022-12-03T04:23:17.203Z,100766.63
2022-12-03T04:26:02.843Z,100770.31
2022-12-03T04:28:48.120Z,100768.47
2022-12-03T04:31:39.012Z,100773.91
2022-12-03T04:34:25.616Z,100754.56
2022-12-03T04:36:53.398Z,100760.59
2022-12-03T04:39:21.283Z,100758.75
2022-12-03T04:41:49.012Z,100760.72
2022-12-03T04:44:36.096Z,100760.59
2022-12-03T04:47:07.097Z,100744.25
2022-12-03T04:49:37.702Z,100755.94
2022-12-03T04:52:05.870Z,100750.13
2022-12-03T04:54:34.130Z,100760.28
2022-12-03T04:57:02.220Z,100741.78
2022-12-03T04:59:30.328Z,100748.38
2022-12-03T05:01:58.155Z,100749.03
2022-12-03T05:04:26.553Z,100755.69
2022-12-03T05:06:55.883Z,100756.69
2022-12-03T05:09:23.721Z,100754.31
2022-12-03T05:11:51.609Z,100755.84
2022-12-03T05:14:19.653Z,100760.19
2022-12-03T05:16:47.471Z,100740.34
2022-12-03T05:19:15.382Z,100760.06
2022-12-03T05:21:42.187Z,100757.41
2022-12-03T05:24:11.723Z,100768.69
2022-12-03T05:26:39.601Z,100772.06
2022-12-03T05:29:07.482Z,100771.94
2022-12-03T05:31:35.349Z,100765.38
2022-12-03T05:34:03.097Z,100769.94
2022-12-03T05:36:31.018Z,100763.75
2022-12-03T05:38:58.877Z,100771.13
2022-12-03T05:41:45.481Z,100766.84
2022-12-03T05:44:17.378Z,100769.16
2022-12-03T05:46:47.993Z,100765.34
2022-12-03T05:49:15.861Z,100763.78
2022-12-03T05:51:43.652Z,100771.53
2022-12-03T05:54:11.414Z,100762.91
2022-12-03T05:56:40.572Z,100770.31
2022-12-03T05:59:08.465Z,100772.06
2022-12-03T06:01:36.344Z,100770.31
2022-12-03T06:04:04.260Z,100753.97
2022-12-03T06:06:32.142Z,100765.19
2022-12-03T06:09:00.234Z,100769.53
2022-12-03T06:11:29.853Z,100759.16
2022-12-03T06:13:59.189Z,100760.53
2022-12-03T06:16:27.500Z,100770.94
2022-12-03T06:18:55.396Z,100768.03
2022-12-03T06:21:23.262Z,100767.94
2022-12-03T06:23:50.977Z,100740.66
2022-12-03T06:26:18.791Z,100738.25
2022-12-03T06:28:47.620Z,100748.00
2022-12-03T06:31:16.875Z,100761.88
2022-12-03T06:33:44.826Z,100756.63
2022-12-03T06:36:12.633Z,100731.06
2022-12-03T06:38:40.390Z,100745.50
2022-12-03T06:41:08.374Z,100752.16
2022-12-03T06:43:36.265Z,100714.53
2022-12-03T06:46:04.183Z,100726.03
2022-12-03T06:48:33.394Z,100745.81
2022-12-03T06:51:01.211Z,100752.09
2022-12-03T06:53:29.062Z,100753.22
2022-12-03T06:55:56.887Z,100743.69
2022-12-03T06:58:24.684Z,100739.56
2022-12-03T07:00:52.500Z,100744.28
2022-12-03T07:03:20.343Z,100732.97
2022-12-03T07:05:49.598Z,100747.88
2022-12-03T07:08:17.492Z,100738.22
2022-12-03T07:10:45.340Z,100742.75
2022-12-03T07:13:13.326Z,100742.75
2022-12-03T07:15:41.318Z,100743.25
2022-12-03T07:18:09.306Z,100728.16
2022-12-03T07:20:37.422Z,100754.69
2022-12-03T07:23:08.867Z,100747.50
2022-12-03T07:25:36.966Z,100757.59
2022-12-03T07:28:05.514Z,100743.69
2022-12-03T07:30:33.385Z,100757.16
2022-12-03T07:33:01.283Z,100761.56
2022-12-03T07:35:30.334Z,100760.84
2022-12-03T07:37:58.147Z,100749.00
2022-12-03T07:40:27.384Z,100741.41
2022-12-03T07:42:55.373Z,100761.94
2022-12-03T07:45:23.328Z,100731.88
2022-12-03T07:47:51.095Z,100755.69
2022-12-03T07:50:18.847Z,100751.97
2022-12-03T07:52:46.626Z,100756.69
2022-12-03T07:55:14.511Z,100739.91
2022-12-03T07:57:43.627Z,100752.41
2022-12-03T08:00:12.630Z,100747.41
2022-12-03T08:02:40.525Z,100753.50
2022-12-03T08:05:08.909Z,100734.59
2022-12-03T08:07:36.829Z,100721.72
2022-12-03T08:10:06.992Z,100754.81
2022-12-03T08:12:40.904Z,100743.09
2022-12-03T08:15:16.773Z,100754.78
2022-12-03T08:17:45.840Z,100748.56
2022-12-03T08:20:16.971Z,100746.72
2022-12-03T08:22:46.531Z,100756.31
2022-12-03T08:25:18.184Z,100744.03
2022-12-03T08:27:45.967Z,100751.63
2022-12-03T08:30:16.872Z,100757.22
2022-12-03T08:32:44.961Z,100746.97
2022-12-03T08:35:14.722Z,100724.97
2022-12-03T08:37:42.917Z,100751.31
2022-12-03T08:40:25.608Z,100757.38
2022-12-03T08:42:53.387Z,100762.84
2022-12-03T08:45:39.775Z,100766.22
2022-12-03T08:48:32.554Z,100762.84
2022-12-03T08:51:04.613Z,100769.94
2022-12-03T08:53:37.977Z,100757.53
2022-12-03T08:56:14.640Z,100759.59
2022-12-03T08:58:44.370Z,100752.72
2022-12-03T09:01:34.894Z,100758.25
2022-12-03T09:04:31.948Z,100748.41
2022-12-03T09:07:00.300Z,100738.97
2022-12-03T09:09:28.572Z,100717.16
2022-12-03T09:11:56.775Z,100719.53
2022-12-03T09:14:24.761Z,100744.56
2022-12-03T09:16:55.823Z,100751.41
2022-12-03T09:19:25.167Z,100749.81
2022-12-03T09:21:53.441Z,100731.66
2022-12-03T09:24:21.937Z,100747.75
2022-12-03T09:26:49.949Z,100742.69
2022-12-03T09:29:17.922Z,100753.09
2022-12-03T09:31:45.991Z,100749.81
2022-12-03T09:34:15.579Z,100751.00
2022-12-03T09:36:43.484Z,100755.03
2022-12-03T09:39:12.885Z,100747.00
2022-12-03T09:41:40.965Z,100732.88
2022-12-03T09:44:15.781Z,100735.41
2022-12-03T09:46:47.300Z,100734.56
2022-12-03T09:49:19.685Z,100735.75
2022-12-03T09:51:47.930Z,100732.88
2022-12-03T09:54:24.103Z,100728.88
2022-12-03T09:56:52.884Z,100733.06
2022-12-03T09:59:22.871Z,100724.16
2022-12-03T10:01:50.759Z,100726.19
2022-12-03T10:04:20.582Z,100730.72
2022-12-03T10:06:48.738Z,100731.50
2022-12-03T10:09:23.481Z,100720.13
2022-12-03T10:11:51.616Z,100723.50
2022-12-03T10:14:20.860Z,100710.38
2022-12-03T10:16:49.227Z,100714.06
2022-12-03T10:19:23.987Z,100698.97
2022-12-03T10:21:51.883Z,100701.34
2022-12-03T10:24:23.103Z,100700.50
2022-12-03T10:26:52.525Z,100689.75
2022-12-03T10:29:22.591Z,100685.06
2022-12-03T10:31:56.853Z,100687.56
2022-12-03T10:34:30.444Z,100685.72
2022-12-03T10:37:16.025Z,100680.16
2022-12-03T10:40:01.361Z,100679.84
2022-12-03T10:42:31.439Z,100673.81
2022-12-03T10:45:24.126Z,100685.53
2022-12-03T10:48:07.240Z,100680.16
2022-12-03T10:50:37.117Z,100678.66
2022-12-03T10:53:05.556Z,100662.91
2022-12-03T10:55:39.714Z,100688.91
2022-12-03T10:58:14.968Z,100677.31
2022-12-03T11:00:42.924Z,100659.69
2022-12-03T11:03:19.363Z,100673.81
2022-12-03T11:05:49.054Z,100671.78
2022-12-03T11:08:22.346Z,100647.78
2022-12-03T11:10:58.563Z,100654.84
2022-12-03T11:13:48.827Z,100665.75
2022-12-03T11:17:08.930Z,100647.28
2022-12-03T11:19:49.698Z,100662.91
2022-12-03T11:22:38.823Z,100630.84
2022-12-03T11:25:37.085Z,100652.31
2022-12-03T11:28:32.515Z,100641.06
2022-12-03T11:31:02.991Z,100641.41
2022-12-03T11:33:32.324Z,100649.97
2022-12-03T11:36:31.699Z,100641.59
2022-12-03T11:39:09.518Z,100642.91
2022-12-03T11:41:37.362Z,100639.88
2022-12-03T11:44:30.141Z,100643.06
2022-12-03T11:47:15.108Z,100637.88
2022-12-03T11:49:49.955Z,100628.94
2022-12-03T11:52:31.999Z,100627.03
2022-12-03T11:55:04.345Z,100636.19
2022-12-03T11:57:38.349Z,100615.06
2022-12-03T12:00:20.571Z,100621.91
2022-12-03T12:02:49.370Z,100619.75
2022-12-03T12:05:20.521Z,100613.84
2022-12-03T12:07:50.502Z,100590.34
2022-12-03T12:10:40.068Z,100595.69
2022-12-03T12:13:08.279Z,100590.97
2022-12-03T12:15:44.214Z,100597.06
2022-12-03T12:18:38.777Z,100598.25
2022-12-03T12:21:42.377Z,100586.81
2022-12-03T12:24:38.128Z,100585.84
2022-12-03T12:27:08.399Z,100585.69
2022-12-03T12:29:37.152Z,100586.03
2022-12-03T12:32:15.275Z,100576.59
2022-12-03T12:34:45.448Z,100561.50
2022-12-03T12:37:15.237Z,100587.34
2022-12-03T12:39:44.378Z,100563.84
2022-12-03T12:42:34.558Z,100576.97
2022-12-03T12:45:13.021Z,100587.22
2022-12-03T12:47:47.401Z,100589.19
2022-12-03T12:50:16.332Z,100576.31
2022-12-03T12:52:53.336Z,100578.31
2022-12-03T12:55:34.142Z,100584.50
2022-12-03T12:58:06.811Z,100569.59
2022-12-03T13:00:34.663Z,100562.38
2022-12-03T13:03:04.661Z,100577.00
2022-12-03T13:05:39.635Z,100572.78
2022-12-03T13:08:22.069Z,100572.28
2022-12-03T13:10:52.054Z,100586.88
2022-12-03T13:13:26.739Z,100586.19
2022-12-03T13:16:00.810Z,100583.16
2022-12-03T13:18:34.155Z,100562.28
2022-12-03T13:37:57.687Z,100567.25
2022-12-03T13:40:35.406Z,100532.19
2022-12-03T13:43:13.937Z,100550.31
2022-12-03T13:45:59.686Z,100569.22
2022-12-03T13:51:38.221Z,100539.22
2022-12-03T13:54:20.920Z,100497.16
2022-12-03T13:56:51.632Z,100529.50
2022-12-03T13:59:26.454Z,100558.34
2022-12-03T14:01:56.172Z,100539.91
2022-12-03T14:04:26.826Z,100519.44
2022-12-03T14:06:58.121Z,100527.31
2022-12-03T14:09:31.317Z,100526.94
2022-12-03T14:12:18.001Z,100543.09
2022-12-03T14:14:47.501Z,100517.75
2022-12-03T14:17:18.959Z,100554.31
2022-12-03T14:19:49.640Z,100542.38
2022-12-03T14:22:25.928Z,100513.56
2022-12-03T14:24:58.710Z,100554.66
2022-12-03T14:27:29.287Z,100479.84
2022-12-03T14:32:53.282Z,100531.16
2022-12-03T14:35:21.722Z,100544.75
2022-12-03T14:40:53.284Z,100546.78
2022-12-03T14:43:23.165Z,100478.53
2022-12-03T14:45:51.526Z,100498.84
2022-12-03T14:48:19.473Z,100549.81
2022-12-03T14:50:47.397Z,100537.72
2022-12-03T14:53:15.239Z,100536.22
2022-12-03T14:55:45.543Z,100536.53
2022-12-03T14:58:13.429Z,100535.72
2022-12-03T15:00:41.247Z,100526.97
2022-12-03T15:03:09.101Z,100533.53
2022-12-03T15:05:37.038Z,100524.13
2022-12-03T15:08:05.023Z,100532.88
2022-12-03T15:10:33.096Z,100544.44
2022-12-03T15:13:02.414Z,100541.59
2022-12-03T15:15:30.312Z,100544.97
2022-12-03T15:17:58.250Z,100542.91
2022-12-03T15:20:26.126Z,100554.81
2022-12-03T15:22:54.045Z,100559.19
2022-12-03T15:25:25.476Z,100555.50
2022-12-03T15:27:53.514Z,100557.38
2022-12-03T15:30:22.791Z,100566.22
2022-12-03T15:32:51.573Z,100543.59
2022-12-03T15:35:32.132Z,100561.22
2022-12-03T15:38:20.549Z,100550.13
2022-12-03T15:40:48.998Z,100543.75
2022-12-03T15:47:05.085Z,100550.97
2022-12-03T15:49:38.977Z,100538.56
2022-12-03T15:52:16.189Z,100517.94
2022-12-03T15:55:09.150Z,100481.00
2022-12-03T15:57:41.700Z,100540.56
2022-12-03T16:00:16.933Z,100547.44
2022-12-03T16:03:14.992Z,100529.50
2022-12-03T16:05:43.714Z,100525.16
2022-12-03T16:08:18.222Z,100511.72
2022-12-03T16:10:54.519Z,100486.75
2022-12-03T16:13:48.199Z,100522.97
2022-12-03T16:16:31.649Z,100562.22
2022-12-03T16:23:33.795Z,100530.50
2022-12-03T16:26:23.861Z,100567.75
2022-12-03T16:31:53.787Z,100530.34
2022-12-03T16:34:58.202Z,100495.31
2022-12-03T16:38:50.252Z,100552.50
2022-12-03T16:41:32.670Z,100547.81
2022-12-03T16:44:17.259Z,100536.72
2022-12-03T16:46:53.619Z,100552.34
2022-12-03T16:49:36.918Z,100554.66
2022-12-03T17:38:05.837Z,100531.00
2022-12-03T17:46:12.842Z,100475.03
2022-12-03T17:57:04.462Z,100508.38
2022-12-03T17:59:42.290Z,100522.13
2022-12-03T18:02:19.878Z,100511.41
2022-12-03T18:05:02.145Z,100515.59
2022-12-03T18:07:43.967Z,100467.97
2022-12-03T18:10:23.095Z,100517.09
2022-12-03T18:12:59.816Z,100519.78
2022-12-03T18:15:35.425Z,100483.53
2022-12-03T18:21:02.654Z,100505.19
2022-12-03T18:23:37.780Z,100472.13
2022-12-03T18:28:58.498Z,100515.94
2022-12-03T18:31:33.252Z,100488.59
2022-12-03T18:34:09.694Z,100498.31
2022-12-03T18:36:54.521Z,100470.97
2022-12-03T18:39:36.567Z,100521.63
2022-12-03T18:42:19.478Z,100518.78
2022-12-03T18:45:00.021Z,100507.56
2022-12-03T18:47:36.185Z,100475.53
2022-12-03T18:53:42.249Z,100502.53
2022-12-03T18:56:19.741Z,100467.16
2022-12-03T18:59:03.179Z,100490.63
2022-12-03T19:01:44.339Z,100427.59
2022-12-03T19:04:26.672Z,100498.47
2022-12-03T19:06:58.347Z,100484.75
2022-12-03T19:09:34.635Z,100465.13
2022-12-03T19:12:22.580Z,100446.38
2022-12-03T19:14:52.688Z,100452.25
2022-12-03T19:17:41.995Z,100438.31
2022-12-03T19:23:08.929Z,100502.50
2022-12-03T19:26:00.324Z,100450.56
2022-12-03T19:28:51.720Z,100496.97
2022-12-03T19:31:26.688Z,100489.75
2022-12-03T19:37:22.470Z,100461.09
2022-12-03T19:42:51.638Z,100437.94
2022-12-03T19:45:33.769Z,100468.47
2022-12-03T19:48:08.602Z,100471.50
2022-12-03T19:50:43.843Z,100474.00
2022-12-03T19:53:26.807Z,100474.34
2022-12-03T19:55:56.757Z,100415.19
2022-12-03T19:58:25.510Z,100463.78
2022-12-03T20:00:57.177Z,100483.22
2022-12-03T20:04:02.144Z,100464.47
2022-12-03T20:06:35.931Z,100482.22
2022-12-03T20:09:14.554Z,100462.41
2022-12-03T20:11:58.836Z,100475.34
2022-12-03T20:14:32.803Z,100447.19
2022-12-03T20:17:05.900Z,100474.97
2022-12-03T20:19:48.761Z,100454.91
2022-12-03T20:22:25.918Z,100422.22
2022-12-03T20:28:22.078Z,100428.75
2022-12-03T20:31:11.752Z,100450.72
2022-12-03T20:33:56.721Z,100443.19
2022-12-03T20:36:32.262Z,100420.53
2022-12-03T20:39:07.615Z,100437.97
2022-12-03T20:41:45.459Z,100474.50
2022-12-03T20:44:19.826Z,100465.78
2022-12-03T20:46:53.217Z,100472.97
2022-12-03T20:49:28.323Z,100470.28
2022-12-03T20:52:02.817Z,100466.94
2022-12-03T20:54:39.243Z,100468.47
2022-12-03T20:57:11.113Z,100463.44
2022-12-03T20:59:46.167Z,100462.75
2022-12-03T21:02:21.091Z,100427.41
2022-12-03T21:05:01.322Z,100466.44
2022-12-03T21:07:48.716Z,100441.44
2022-12-03T21:10:45.095Z,100406.13
2022-12-03T21:13:14.345Z,100450.38
2022-12-03T21:15:42.722Z,100451.69
2022-12-03T21:18:12.315Z,100461.41
2022-12-03T21:20:42.074Z,100441.31
2022-12-03T21:23:10.642Z,100450.69
2022-12-03T21:25:39.268Z,100428.09
2022-12-03T21:28:08.862Z,100449.53
2022-12-03T21:30:39.529Z,100443.63
2022-12-03T21:33:08.056Z,100446.97
2022-12-03T21:35:38.038Z,100433.09
2022-12-03T21:38:08.501Z,100438.63
2022-12-03T21:40:36.722Z,100415.34
2022-12-03T21:43:04.847Z,100428.06
2022-12-03T21:45:32.878Z,100436.44
2022-12-03T21:48:01.046Z,100449.53
2022-12-03T21:50:29.737Z,100457.41
2022-12-03T21:52:57.846Z,100454.38
2022-12-03T21:55:27.760Z,100460.41
2022-12-03T21:58:11.836Z,100445.66
2022-12-03T22:00:40.989Z,100448.88
2022-12-03T22:03:09.019Z,100442.50
2022-12-03T22:05:40.261Z,100452.22
2022-12-03T22:08:08.745Z,100431.44
2022-12-03T22:10:38.133Z,100428.06
2022-12-03T22:20:29.143Z,100425.22
2022-12-03T22:23:08.223Z,100409.50
2022-12-03T22:25:57.072Z,100445.69
2022-12-03T22:28:53.028Z,100440.16
2022-12-03T22:35:10.042Z,100444.84
2022-12-03T22:47:48.376Z,100388.06
2022-12-03T22:50:25.070Z,100441.50
2022-12-03T22:53:02.624Z,100369.63
2022-12-03T23:02:40.030Z,100403.44
2022-12-03T23:05:09.912Z,100421.34
2022-12-03T23:07:37.922Z,100418.03
2022-12-03T23:10:10.353Z,100417.53
2022-12-03T23:12:38.192Z,100419.50
2022-12-03T23:15:07.512Z,100377.81
2022-12-03T23:17:36.075Z,100403.25
2022-12-03T23:20:04.961Z,100394.22
2022-12-03T23:22:34.259Z,100395.38
2022-12-03T23:25:02.326Z,100390.84
2022-12-03T23:27:30.509Z,100378.28
2022-12-03T23:30:01.246Z,100393.19
2022-12-03T23:32:29.349Z,100393.38
2022-12-03T23:34:57.257Z,100370.44
2022-12-03T23:37:26.793Z,100399.72
2022-12-03T23:39:56.511Z,100367.41
2022-12-03T23:42:27.146Z,100386.00
2022-12-03T23:44:55.138Z,100391.69
2022-12-03T23:47:27.811Z,100392.53
2022-12-03T23:49:55.961Z,100365.88
2022-12-03T23:52:24.387Z,100382.63
2022-12-03T23:54:52.201Z,100377.78
2022-12-03T23:57:23.782Z,100375.09
2022-12-03T23:59:51.995Z,100371.72
